createdAt,value
2022-08-14T00:03:44.790Z,5.40
2022-08-14T00:07:30.533Z,4.53
2022-08-14T00:11:24.679Z,5.15
2022-08-14T00:15:03.612Z,4.23
2022-08-14T00:19:18.152Z,4.67
2022-08-14T00:23:11.976Z,3.95
2022-08-14T00:27:06.576Z,3.88
2022-08-14T00:30:51.569Z,4.00
2022-08-14T00:34:46.688Z,3.87
2022-08-14T00:38:27.632Z,3.57
2022-08-14T00:42:52.588Z,3.60
2022-08-14T00:46:33.344Z,3.72
2022-08-14T00:50:27.552Z,4.10
2022-08-14T00:54:21.207Z,4.73
2022-08-14T00:58:33.307Z,4.20
2022-08-14T01:02:27.726Z,3.38
2022-08-14T01:06:08.779Z,4.60
2022-08-14T01:10:02.582Z,4.35
2022-08-14T01:13:44.353Z,4.40
2022-08-14T01:17:54.576Z,4.33
2022-08-14T01:21:46.730Z,4.53
2022-08-14T01:25:38.574Z,4.07
2022-08-14T01:29:40.363Z,4.22
2022-08-14T01:33:59.336Z,4.13
2022-08-14T01:37:44.232Z,3.93
2022-08-14T01:41:38.633Z,3.95
2022-08-14T01:45:25.746Z,4.10
2022-08-14T01:49:21.601Z,4.45
2022-08-14T01:53:14.631Z,4.53
2022-08-14T01:56:55.845Z,3.80
2022-08-14T02:00:48.002Z,4.15
2022-08-14T02:04:55.681Z,4.00
2022-08-14T02:08:52.519Z,3.58
2022-08-14T02:12:57.139Z,3.77
2022-08-14T02:16:59.608Z,4.00
2022-08-14T02:20:51.595Z,4.03
2022-08-14T02:24:39.797Z,4.32
2022-08-14T02:28:57.913Z,4.60
2022-08-14T02:32:52.623Z,3.47
2022-08-14T02:37:05.157Z,4.05
2022-08-14T02:40:49.622Z,3.92
2022-08-14T02:44:29.951Z,3.72
2022-08-14T02:49:01.856Z,4.28
2022-08-14T02:52:57.598Z,3.77
2022-08-14T02:57:15.808Z,4.70
2022-08-14T03:00:46.810Z,4.80
2022-08-14T03:04:34.622Z,4.43
2022-08-14T03:08:27.667Z,4.85
2022-08-14T03:12:13.626Z,4.70
2022-08-14T03:16:20.105Z,4.20
2022-08-14T03:20:13.663Z,5.28
2022-08-14T03:24:22.946Z,5.13
2022-08-14T03:28:14.770Z,5.03
2022-08-14T03:32:14.691Z,4.80
2022-08-14T03:37:28.818Z,5.13
2022-08-14T03:40:11.737Z,5.38
2022-08-14T03:44:01.592Z,4.95
2022-08-14T03:48:10.464Z,5.60
2022-08-14T03:52:04.719Z,5.20
2022-08-14T03:56:04.725Z,5.68
2022-08-14T03:59:49.736Z,4.93
2022-08-14T04:03:37.259Z,5.10
2022-08-14T04:07:32.898Z,4.63
2022-08-14T04:11:15.363Z,5.50
2022-08-14T04:15:07.689Z,5.13
2022-08-14T04:18:57.693Z,5.35
2022-08-14T04:22:49.699Z,5.40
2022-08-14T04:26:42.313Z,5.37
2022-08-14T04:30:35.665Z,5.25
2022-08-14T04:34:28.675Z,6.00
2022-08-14T04:38:36.071Z,6.55
2022-08-14T04:42:51.565Z,5.60
2022-08-14T04:46:55.194Z,6.10
2022-08-14T04:51:03.567Z,6.25
2022-08-14T04:54:55.670Z,6.60
2022-08-14T04:58:43.705Z,5.83
2022-08-14T05:02:36.768Z,5.57
2022-08-14T05:06:34.990Z,5.32
2022-08-14T05:10:32.718Z,5.55
2022-08-14T05:14:43.101Z,4.72
2022-08-14T05:19:24.776Z,5.13
2022-08-14T05:22:56.031Z,5.70
2022-08-14T05:26:41.675Z,5.85
2022-08-14T05:30:33.725Z,4.80
2022-08-14T05:34:11.847Z,5.20
2022-08-14T05:38:03.710Z,5.30
2022-08-14T05:41:55.715Z,4.65
2022-08-14T05:45:48.736Z,4.78
2022-08-14T05:49:32.993Z,5.03
2022-08-14T05:53:25.695Z,4.57
2022-08-14T05:57:05.813Z,4.70
2022-08-14T06:00:57.736Z,4.53
2022-08-14T06:04:42.719Z,4.85
2022-08-14T06:08:41.621Z,4.28
2022-08-14T06:12:31.449Z,4.93
2022-08-14T06:16:24.778Z,4.23
2022-08-14T06:20:10.370Z,4.18
2022-08-14T06:23:49.194Z,4.63
2022-08-14T06:27:48.749Z,4.35
2022-08-14T06:31:41.717Z,4.33
2022-08-14T06:35:23.509Z,4.77
2022-08-14T06:39:14.741Z,4.32
2022-08-14T06:43:07.750Z,4.10
2022-08-14T06:46:59.721Z,4.32
2022-08-14T06:50:46.611Z,4.47
2022-08-14T06:54:38.801Z,4.27
2022-08-14T06:58:29.362Z,4.18
2022-08-14T07:02:43.682Z,4.18
2022-08-14T07:06:46.579Z,4.40
2022-08-14T07:10:39.742Z,4.07
2022-08-14T07:14:21.095Z,4.67
2022-08-14T07:18:12.745Z,4.15
2022-08-14T07:21:58.765Z,3.83
2022-08-14T07:25:58.761Z,4.78
2022-08-14T07:29:50.765Z,3.57
2022-08-14T07:33:41.907Z,3.63
2022-08-14T07:37:42.766Z,4.32
2022-08-14T07:41:36.845Z,3.92
2022-08-14T07:45:21.771Z,3.30
2022-08-14T07:49:17.654Z,3.53
2022-08-14T07:53:03.786Z,3.60
2022-08-14T07:56:56.789Z,3.40
2022-08-14T08:00:34.848Z,3.13
2022-08-14T08:04:34.804Z,3.20
2022-08-14T08:08:27.378Z,3.45
2022-08-14T08:12:14.327Z,3.70
2022-08-14T08:16:11.890Z,3.30
2022-08-14T08:19:56.822Z,3.20
2022-08-14T08:23:50.887Z,3.40
2022-08-14T08:27:30.351Z,3.63
2022-08-14T08:31:21.832Z,3.50
2022-08-14T08:35:07.809Z,3.90
2022-08-14T08:39:17.704Z,3.50
2022-08-14T08:43:01.820Z,3.65
2022-08-14T08:46:53.840Z,3.70
2022-08-14T08:54:30.839Z,3.30
2022-08-14T08:58:25.484Z,3.40
2022-08-14T09:02:26.160Z,4.60
2022-08-14T09:06:53.529Z,4.13
2022-08-14T09:10:22.112Z,3.57
2022-08-14T09:14:08.846Z,3.17
2022-08-14T09:18:00.906Z,3.38
2022-08-14T09:21:39.910Z,3.20
2022-08-14T09:26:00.347Z,2.90
2022-08-14T09:29:32.112Z,3.40
2022-08-14T09:33:35.850Z,3.80
2022-08-14T09:37:58.850Z,3.43
2022-08-14T09:42:33.480Z,3.50
2022-08-14T09:46:21.247Z,3.45
2022-08-14T09:50:16.876Z,3.60
2022-08-14T09:54:22.480Z,3.20
2022-08-14T09:58:28.351Z,3.87
2022-08-14T10:02:28.929Z,4.00
2022-08-14T10:06:19.422Z,3.30
2022-08-14T10:10:23.409Z,4.30
2022-08-14T10:14:35.218Z,4.05
2022-08-14T10:18:23.855Z,4.28
2022-08-14T10:23:12.809Z,4.20
2022-08-14T10:26:28.164Z,4.60
2022-08-14T10:30:13.886Z,4.95
2022-08-14T10:34:16.879Z,4.88
2022-08-14T10:37:58.987Z,5.33
2022-08-14T10:41:54.081Z,4.47
2022-08-14T10:45:51.886Z,4.88
2022-08-14T10:50:12.117Z,4.55
2022-08-14T10:54:35.151Z,5.30
2022-08-14T10:58:22.911Z,4.57
2022-08-14T11:02:44.557Z,4.20
2022-08-14T11:06:27.305Z,4.70
2022-08-14T11:10:20.921Z,5.13
2022-08-14T11:14:04.146Z,4.97
2022-08-14T11:18:01.180Z,5.32
2022-08-14T11:21:49.931Z,5.55
2022-08-14T11:25:58.885Z,5.93
2022-08-14T11:29:52.752Z,5.90
2022-08-14T11:33:45.896Z,5.65
2022-08-14T11:37:45.932Z,5.72
2022-08-14T11:41:46.660Z,5.83
2022-08-14T11:45:39.970Z,6.20
2022-08-14T11:49:36.952Z,6.18
2022-08-14T11:53:41.894Z,7.13
2022-08-14T11:57:40.925Z,7.63
2022-08-14T12:01:41.017Z,8.43
2022-08-14T12:05:26.946Z,7.90
2022-08-14T12:09:25.955Z,8.25
2022-08-14T12:13:28.953Z,8.40
2022-08-14T12:17:23.954Z,9.77
2022-08-14T12:21:32.143Z,8.90
2022-08-14T12:25:34.519Z,10.43
2022-08-14T12:29:22.944Z,7.93
2022-08-14T12:33:18.080Z,8.70
2022-08-14T12:37:15.935Z,10.07
2022-08-14T12:41:04.054Z,10.15
2022-08-14T12:44:49.967Z,9.40
2022-08-14T12:48:35.172Z,9.00
2022-08-14T12:52:20.937Z,9.17
2022-08-14T12:56:32.990Z,11.65
2022-08-14T13:00:25.960Z,9.93
2022-08-14T13:04:27.973Z,10.00
2022-08-14T13:08:10.675Z,9.93
2022-08-14T13:12:32.691Z,9.70
2022-08-14T13:16:37.821Z,9.82
2022-08-14T13:20:32.982Z,9.38
2022-08-14T13:24:13.637Z,8.97
2022-08-14T13:28:11.240Z,9.20
2022-08-14T13:31:57.985Z,9.20
2022-08-14T13:35:47.552Z,8.95
2022-08-14T13:39:36.216Z,9.73
2022-08-14T13:43:36.441Z,9.27
2022-08-14T13:47:22.043Z,8.52
2022-08-14T13:51:17.041Z,9.07
2022-08-14T13:55:04.995Z,10.85
2022-08-14T13:59:01.007Z,9.00
2022-08-14T14:02:49.071Z,7.80
2022-08-14T14:06:39.083Z,8.48
2022-08-14T14:10:28.428Z,8.23
2022-08-14T14:14:44.655Z,7.15
2022-08-14T14:18:29.910Z,7.13
2022-08-14T14:23:00.733Z,7.23
2022-08-14T14:26:36.148Z,6.82
2022-08-14T14:30:52.412Z,6.10
2022-08-14T14:34:41.034Z,7.38
2022-08-14T14:38:46.416Z,7.33
2022-08-14T14:42:35.361Z,7.55
2022-08-14T14:46:36.087Z,9.07
2022-08-14T14:50:24.727Z,7.60
2022-08-14T14:54:13.228Z,7.13
2022-08-14T14:57:59.060Z,7.68
2022-08-14T15:01:52.074Z,8.27
2022-08-14T15:05:39.157Z,8.70
2022-08-14T15:09:25.252Z,8.40
2022-08-14T15:13:10.493Z,7.18
2022-08-14T15:17:02.497Z,6.85
2022-08-14T15:20:41.801Z,7.68
2022-08-14T15:24:45.026Z,7.87
2022-08-14T15:29:02.966Z,6.93
2022-08-14T15:33:04.919Z,8.45
2022-08-14T15:36:59.304Z,7.82
2022-08-14T15:40:56.817Z,7.70
2022-08-14T15:44:57.418Z,7.90
2022-08-14T15:49:04.184Z,8.20
2022-08-14T15:52:56.231Z,7.97
2022-08-14T15:56:58.505Z,8.10
2022-08-14T16:01:43.698Z,7.80
2022-08-14T16:05:41.530Z,9.00
2022-08-14T16:09:41.247Z,8.05
2022-08-14T16:13:42.532Z,7.53
2022-08-14T16:17:34.071Z,6.80
2022-08-14T16:21:37.545Z,5.83
2022-08-14T16:25:34.245Z,5.43
2022-08-14T16:29:27.087Z,5.45
2022-08-14T16:33:56.542Z,5.40
2022-08-14T16:37:23.171Z,4.70
2022-08-14T16:41:28.113Z,5.85
2022-08-14T16:45:26.097Z,5.15
2022-08-14T16:49:07.817Z,6.00
2022-08-14T16:53:00.866Z,5.87
2022-08-14T16:56:46.101Z,5.50
2022-08-14T17:00:43.935Z,6.00
2022-08-14T17:04:35.098Z,6.28
2022-08-14T17:08:46.296Z,5.83
2022-08-14T17:12:35.051Z,5.53
2022-08-14T17:16:39.159Z,5.72
2022-08-14T17:20:51.523Z,5.50
2022-08-14T17:24:56.261Z,5.83
2022-08-14T17:28:53.841Z,5.87
2022-08-14T17:32:57.580Z,5.68
2022-08-14T17:37:03.119Z,5.38
2022-08-14T17:40:50.149Z,5.53
2022-08-14T17:44:49.124Z,6.87
2022-08-14T17:49:13.837Z,5.88
2022-08-14T17:52:54.171Z,6.07
2022-08-14T17:56:53.148Z,5.95
2022-08-14T18:00:46.176Z,5.33
2022-08-14T18:04:35.121Z,5.80
2022-08-14T18:08:34.140Z,6.38
2022-08-14T18:12:31.920Z,5.10
2022-08-14T18:16:24.142Z,5.95
2022-08-14T18:21:23.452Z,5.47
2022-08-14T18:24:29.615Z,6.07
2022-08-14T18:28:51.985Z,6.45
2022-08-14T18:32:38.141Z,6.05
2022-08-14T18:36:58.077Z,6.30
2022-08-14T18:40:47.229Z,6.10
2022-08-14T18:45:00.211Z,6.53
2022-08-14T18:48:50.561Z,6.72
2022-08-14T18:52:49.325Z,6.47
2022-08-14T18:57:02.203Z,6.17
2022-08-14T19:00:54.172Z,6.00
2022-08-14T19:04:44.185Z,6.95
2022-08-14T19:08:30.644Z,5.72
2022-08-14T19:12:27.988Z,5.45
2022-08-14T19:16:28.212Z,6.03
2022-08-14T19:20:09.785Z,6.68
2022-08-14T19:24:27.323Z,7.00
2022-08-14T19:28:31.193Z,7.30
2022-08-14T19:32:50.702Z,6.93
2022-08-14T19:37:05.189Z,6.27
2022-08-14T19:40:57.193Z,7.10
2022-08-14T19:44:48.006Z,7.22
2022-08-14T19:48:40.204Z,6.80
2022-08-14T19:52:29.774Z,7.53
2022-08-14T19:56:29.143Z,7.65
2022-08-14T20:00:28.395Z,8.00
2022-08-14T20:04:46.727Z,7.95
2022-08-14T20:10:58.885Z,7.73
2022-08-14T20:12:57.685Z,8.17
2022-08-14T20:16:47.262Z,7.90
2022-08-14T20:20:32.904Z,7.97
2022-08-14T20:24:30.378Z,7.38
2022-08-14T20:28:36.450Z,7.27
2022-08-14T20:32:28.242Z,7.80
2022-08-14T20:36:07.310Z,8.70
2022-08-14T20:39:59.231Z,8.85
2022-08-14T20:44:06.667Z,7.85
2022-08-14T20:48:09.302Z,8.47
2022-08-14T20:52:06.256Z,7.80
2022-08-14T20:56:35.271Z,9.05
2022-08-14T21:00:54.312Z,10.98
2022-08-14T21:04:47.490Z,9.50
2022-08-14T21:08:33.268Z,9.17
2022-08-14T21:12:34.238Z,9.30
2022-08-14T21:16:25.920Z,9.93
2022-08-14T21:20:35.256Z,9.88
2022-08-14T21:24:39.927Z,9.45
2022-08-14T21:28:30.418Z,9.50
2022-08-14T21:32:50.649Z,10.35
2022-08-14T21:36:50.259Z,10.07
2022-08-14T21:40:42.132Z,10.32
2022-08-14T21:44:42.854Z,10.15
2022-08-14T21:48:36.271Z,9.67
2022-08-14T21:52:50.646Z,9.77
2022-08-14T21:56:39.733Z,10.30
2022-08-14T22:00:42.025Z,10.00
2022-08-14T22:04:33.682Z,10.50
2022-08-14T22:08:26.889Z,10.17
2022-08-14T22:12:58.388Z,9.43
2022-08-14T22:17:01.507Z,10.45
2022-08-14T22:20:35.287Z,9.52
2022-08-14T22:24:38.498Z,9.83
2022-08-14T22:28:35.285Z,10.63
2022-08-14T22:32:55.992Z,10.75
2022-08-14T22:36:55.303Z,9.57
2022-08-14T22:41:25.109Z,10.73
2022-08-14T22:45:13.305Z,10.40
2022-08-14T22:49:16.619Z,11.23
2022-08-14T22:53:14.295Z,11.13
2022-08-14T22:56:52.371Z,10.35
2022-08-14T23:00:48.324Z,10.70
2022-08-14T23:04:53.762Z,11.07
2022-08-14T23:09:00.190Z,12.30
2022-08-14T23:12:58.328Z,12.38
2022-08-14T23:16:57.414Z,13.48
2022-08-14T23:20:36.483Z,12.60
2022-08-14T23:24:28.313Z,11.38
2022-08-14T23:28:34.705Z,12.55
2022-08-14T23:32:26.319Z,12.38
2022-08-14T23:36:31.426Z,11.50
2022-08-14T23:40:29.574Z,13.20
2022-08-14T23:44:21.515Z,14.32
2022-08-14T23:48:19.465Z,13.45
2022-08-14T23:53:06.330Z,11.68
2022-08-14T23:56:13.340Z,12.90
